createdAt,value
2018-03-16T00:00:11.268Z,17.63
2018-03-16T00:02:40.287Z,17.93
2018-03-16T00:05:08.497Z,15.93
2018-03-16T00:07:36.798Z,15.20
2018-03-16T00:10:05.075Z,15.23
2018-03-16T00:12:33.368Z,17.93
2018-03-16T00:15:02.436Z,15.37
2018-03-16T00:17:30.725Z,14.27
2018-03-16T00:19:59.785Z,15.43
2018-03-16T00:22:38.973Z,16.20
2018-03-16T00:25:07.195Z,15.63
2018-03-16T00:27:35.533Z,14.80
2018-03-16T00:30:03.835Z,13.93
2018-03-16T00:32:32.049Z,14.77
2018-03-16T00:35:00.249Z,14.20
2018-03-16T00:37:29.249Z,14.30
2018-03-16T00:39:57.561Z,14.90
2018-03-16T00:42:26.953Z,15.33
2018-03-16T00:44:56.137Z,15.50
2018-03-16T00:47:24.374Z,15.00
2018-03-16T00:49:52.614Z,15.00
2018-03-16T00:52:20.916Z,16.90
2018-03-16T00:57:22.690Z,14.63
2018-03-16T00:59:51.653Z,14.73
2018-03-16T01:02:19.870Z,15.07
2018-03-16T01:04:48.911Z,15.70
2018-03-16T01:07:17.104Z,14.40
2018-03-16T01:09:46.261Z,14.63
2018-03-16T01:12:14.555Z,14.63
2018-03-16T01:14:43.835Z,15.60
2018-03-16T01:17:12.049Z,16.10
2018-03-16T01:19:40.360Z,15.20
2018-03-16T01:22:09.389Z,16.80
2018-03-16T01:24:37.615Z,16.40
2018-03-16T01:27:09.671Z,15.43
2018-03-16T01:29:38.805Z,15.70
2018-03-16T01:32:07.797Z,15.70
2018-03-16T01:34:36.788Z,14.90
2018-03-16T01:37:06.647Z,15.33
2018-03-16T01:39:34.857Z,13.97
2018-03-16T01:42:03.185Z,15.27
2018-03-16T01:44:31.500Z,14.53
2018-03-16T01:47:00.526Z,16.37
2018-03-16T01:49:29.507Z,15.63
2018-03-16T01:51:57.745Z,15.13
2018-03-16T01:54:25.944Z,14.93
2018-03-16T01:56:54.300Z,16.03
2018-03-16T01:59:22.528Z,15.70
2018-03-16T02:01:51.524Z,14.70
2018-03-16T02:04:20.564Z,15.47
2018-03-16T02:06:48.902Z,15.33
2018-03-16T02:09:17.748Z,15.33
2018-03-16T02:11:46.704Z,15.13
2018-03-16T02:14:14.922Z,15.67
2018-03-16T02:16:43.880Z,13.97
2018-03-16T02:19:12.086Z,13.40
2018-03-16T02:21:41.095Z,14.03
2018-03-16T02:24:11.547Z,14.40
2018-03-16T02:26:41.370Z,14.13
2018-03-16T02:29:09.738Z,14.87
2018-03-16T02:31:38.126Z,14.90
2018-03-16T02:34:07.607Z,14.40
2018-03-16T02:36:35.812Z,14.33
2018-03-16T02:39:04.900Z,14.17
2018-03-16T02:41:33.141Z,15.63
2018-03-16T02:44:02.166Z,14.93
2018-03-16T02:46:30.498Z,15.23
2018-03-16T02:48:58.720Z,15.10
2018-03-16T02:51:27.682Z,15.23
2018-03-16T02:53:56.684Z,15.50
2018-03-16T02:56:27.322Z,15.33
2018-03-16T02:58:55.526Z,16.77
2018-03-16T03:01:23.867Z,15.60
2018-03-16T03:03:52.296Z,14.50
2018-03-16T03:06:20.515Z,16.27
2018-03-16T03:08:49.468Z,16.63
2018-03-16T03:11:17.774Z,15.97
2018-03-16T03:13:46.644Z,17.50
2018-03-16T03:16:14.838Z,16.17
2018-03-16T03:18:43.824Z,16.50
2018-03-16T03:21:12.083Z,16.07
2018-03-16T03:23:40.329Z,16.00
2018-03-16T03:26:08.584Z,15.00
2018-03-16T03:28:36.824Z,14.53
2018-03-16T03:31:05.021Z,17.07
2018-03-16T03:33:34.028Z,15.77
2018-03-16T03:36:02.216Z,15.77
2018-03-16T03:38:30.482Z,14.33
2018-03-16T03:40:58.753Z,14.37
2018-03-16T03:43:26.941Z,16.70
2018-03-16T03:45:55.167Z,15.50
2018-03-16T03:48:25.090Z,14.63
2018-03-16T03:50:54.142Z,14.33
2018-03-16T03:53:22.424Z,14.23
2018-03-16T03:55:50.650Z,14.30
2018-03-16T03:58:19.632Z,13.67
2018-03-16T04:00:47.838Z,14.47
2018-03-16T04:03:16.061Z,13.63
2018-03-16T04:05:45.028Z,15.27
2018-03-16T04:08:14.192Z,13.50
2018-03-16T04:10:42.466Z,13.20
2018-03-16T04:13:10.784Z,14.80
2018-03-16T04:15:39.026Z,13.83
2018-03-16T04:18:07.368Z,16.10
2018-03-16T04:20:36.402Z,14.57
2018-03-16T04:23:05.538Z,14.80
2018-03-16T04:25:33.926Z,16.47
2018-03-16T04:28:02.184Z,15.67
2018-03-16T04:30:30.496Z,15.27
2018-03-16T04:32:59.485Z,14.97
2018-03-16T04:35:28.494Z,16.77
2018-03-16T04:37:56.729Z,15.67
2018-03-16T04:40:25.829Z,16.13
2018-03-16T04:42:54.067Z,15.77
2018-03-16T04:45:22.291Z,17.87
2018-03-16T04:47:51.271Z,19.47
2018-03-16T04:50:19.480Z,18.10
2018-03-16T04:52:47.781Z,17.30
2018-03-16T04:55:15.977Z,16.50
2018-03-16T04:57:44.241Z,16.97
2018-03-16T05:00:12.457Z,16.17
2018-03-16T05:02:40.652Z,16.77
2018-03-16T05:05:09.666Z,16.00
2018-03-16T05:07:40.335Z,16.40
2018-03-16T05:10:08.667Z,17.43
2018-03-16T05:12:36.885Z,16.10
2018-03-16T05:15:05.128Z,16.30
2018-03-16T05:17:34.483Z,16.70
2018-03-16T05:20:02.661Z,17.13
2018-03-16T05:22:30.881Z,18.00
2018-03-16T05:24:59.106Z,17.50
2018-03-16T05:27:27.329Z,16.27
2018-03-16T05:29:55.727Z,19.10
2018-03-16T05:32:24.007Z,20.20
2018-03-16T05:34:52.263Z,20.90
2018-03-16T05:37:20.564Z,18.63
2018-03-16T05:39:49.502Z,18.23
2018-03-16T05:42:17.793Z,16.93
2018-03-16T05:44:46.038Z,15.40
2018-03-16T05:47:15.083Z,18.43
2018-03-16T05:49:43.327Z,18.47
2018-03-16T05:52:12.431Z,20.47
2018-03-16T05:54:40.683Z,17.00
2018-03-16T05:57:08.951Z,17.43
2018-03-16T05:59:38.004Z,17.70
2018-03-16T06:02:07.067Z,20.63
2018-03-16T06:04:36.033Z,17.77
2018-03-16T06:07:04.306Z,19.37
2018-03-16T06:09:32.625Z,19.87
2018-03-16T06:12:00.830Z,29.37
2018-03-16T06:14:29.055Z,27.63
2018-03-16T06:16:58.063Z,21.37
2018-03-16T06:19:27.221Z,23.83
2018-03-16T06:21:55.487Z,22.80
2018-03-16T06:24:23.709Z,31.77
2018-03-16T06:26:52.689Z,29.57
2018-03-16T06:29:21.101Z,31.37
2018-03-16T06:31:49.370Z,45.87
2018-03-16T06:34:17.595Z,32.70
2018-03-16T06:36:45.828Z,31.40
2018-03-16T06:39:14.087Z,28.57
2018-03-16T06:41:42.290Z,26.47
2018-03-16T06:44:10.572Z,26.60
2018-03-16T06:46:38.841Z,24.47
2018-03-16T06:49:07.072Z,23.90
2018-03-16T06:51:36.118Z,23.17
2018-03-16T06:54:04.337Z,30.47
2018-03-16T06:56:32.630Z,25.83
2018-03-16T06:59:01.677Z,23.20
2018-03-16T07:01:30.842Z,23.83
2018-03-16T07:03:59.246Z,23.53
2018-03-16T07:06:27.481Z,21.87
2018-03-16T07:08:56.551Z,21.60
2018-03-16T07:11:24.819Z,23.03
2018-03-16T07:13:53.096Z,21.40
2018-03-16T07:16:21.368Z,21.33
2018-03-16T07:18:49.624Z,21.37
2018-03-16T07:21:17.924Z,22.40
2018-03-16T07:23:46.188Z,22.30
2018-03-16T07:26:14.512Z,24.20
2018-03-16T07:28:42.727Z,23.10
2018-03-16T07:31:10.990Z,22.10
2018-03-16T07:33:39.210Z,21.13
2018-03-16T07:36:07.761Z,23.30
2018-03-16T07:38:35.964Z,24.37
2018-03-16T07:41:04.176Z,22.90
2018-03-16T07:43:32.434Z,22.37
2018-03-16T07:46:03.241Z,21.70
2018-03-16T07:48:32.471Z,22.30
2018-03-16T07:51:00.872Z,22.80
2018-03-16T07:53:29.138Z,23.97
2018-03-16T07:55:57.362Z,21.30
2018-03-16T07:58:25.720Z,21.97
2018-03-16T08:00:53.944Z,23.20
2018-03-16T08:03:22.218Z,22.20
2018-03-16T08:05:50.483Z,21.47
2018-03-16T08:08:24.194Z,21.40
2018-03-16T08:10:52.690Z,22.50
2018-03-16T08:13:21.684Z,23.20
2018-03-16T08:15:50.731Z,20.43
2018-03-16T08:18:18.948Z,21.70
2018-03-16T08:20:47.942Z,20.57
2018-03-16T08:23:16.924Z,20.57
2018-03-16T08:25:45.132Z,19.40
2018-03-16T08:28:13.470Z,21.10
2018-03-16T08:30:41.691Z,20.33
2018-03-16T08:33:10.012Z,19.50
2018-03-16T08:35:38.249Z,19.93
2018-03-16T08:38:07.330Z,20.73
2018-03-16T08:40:35.559Z,20.67
2018-03-16T08:43:03.783Z,18.50
2018-03-16T08:45:32.087Z,17.57
2018-03-16T08:48:00.363Z,17.80
2018-03-16T08:50:28.654Z,16.83
2018-03-16T08:52:56.900Z,17.07
2018-03-16T08:55:25.358Z,16.63
2018-03-16T08:57:53.744Z,21.77
2018-03-16T09:00:22.196Z,17.33
2018-03-16T09:02:51.261Z,16.47
2018-03-16T09:05:19.689Z,17.00
2018-03-16T09:07:48.847Z,17.33
2018-03-16T09:10:17.152Z,15.97
2018-03-16T09:12:46.307Z,15.90
2018-03-16T09:15:14.567Z,15.50
2018-03-16T09:17:42.855Z,14.43
2018-03-16T09:20:11.079Z,12.73
2018-03-16T09:22:39.375Z,13.57
2018-03-16T09:25:07.684Z,11.87
2018-03-16T09:27:35.904Z,11.53
2018-03-16T09:30:04.139Z,12.23
2018-03-16T09:32:32.517Z,10.53
2018-03-16T09:35:00.892Z,10.03
2018-03-16T09:37:29.218Z,10.10
2018-03-16T09:39:57.513Z,8.50
2018-03-16T09:42:26.533Z,7.23
2018-03-16T09:44:54.743Z,3.73
2018-03-16T09:47:23.191Z,4.07
2018-03-16T09:49:51.451Z,3.63
2018-03-16T09:52:19.705Z,3.63
2018-03-16T09:55:05.671Z,3.53
2018-03-16T09:57:33.913Z,3.60
2018-03-16T10:00:02.118Z,4.03
2018-03-16T10:02:30.312Z,4.10
2018-03-16T10:04:58.531Z,4.30
2018-03-16T10:07:26.783Z,4.17
2018-03-16T10:09:55.935Z,4.00
2018-03-16T10:12:24.336Z,3.80
2018-03-16T10:14:52.550Z,3.50
2018-03-16T10:17:20.775Z,2.83
2018-03-16T10:19:49.760Z,2.67
2018-03-16T10:22:18.053Z,3.17
2018-03-16T10:24:46.339Z,3.30
2018-03-16T10:27:14.619Z,3.30
2018-03-16T10:29:43.743Z,3.30
2018-03-16T10:32:12.296Z,3.00
2018-03-16T10:34:41.270Z,3.17
2018-03-16T10:37:09.585Z,3.53
2018-03-16T10:39:37.793Z,3.53
2018-03-16T10:42:06.860Z,3.60
2018-03-16T10:44:35.530Z,7.37
2018-03-16T10:47:04.653Z,4.47
2018-03-16T10:49:32.940Z,3.87
2018-03-16T10:52:01.185Z,3.57
2018-03-16T10:54:31.169Z,3.47
2018-03-16T10:56:59.492Z,3.67
2018-03-16T10:59:28.458Z,3.00
2018-03-16T11:05:07.357Z,5.17
2018-03-16T11:10:33.591Z,4.57
2018-03-16T11:13:01.937Z,2.80
2018-03-16T11:15:31.004Z,2.70
2018-03-16T11:17:59.206Z,2.73
2018-03-16T11:20:28.182Z,2.53
2018-03-16T11:22:56.493Z,2.47
2018-03-16T11:25:24.747Z,2.70
2018-03-16T11:27:52.964Z,2.70
2018-03-16T11:30:21.175Z,2.50
2018-03-16T11:32:49.397Z,2.80
2018-03-16T11:35:17.629Z,3.20
2018-03-16T11:37:45.836Z,2.80
2018-03-16T11:40:14.837Z,2.40
2018-03-16T11:42:43.814Z,2.50
2018-03-16T11:45:12.850Z,3.07
2018-03-16T11:47:41.138Z,3.87
2018-03-16T11:50:09.544Z,3.93
2018-03-16T11:52:37.898Z,4.20
2018-03-16T11:55:06.163Z,3.57
2018-03-16T11:57:34.414Z,3.20
2018-03-16T12:00:02.752Z,2.40
2018-03-16T12:02:31.096Z,1.90
2018-03-16T12:04:59.334Z,2.40
2018-03-16T12:07:28.354Z,1.77
2018-03-16T12:09:56.688Z,1.93
2018-03-16T12:12:24.912Z,2.30
2018-03-16T12:14:53.215Z,1.70
2018-03-16T12:17:21.570Z,1.70
2018-03-16T12:19:50.304Z,1.40
2018-03-16T12:22:18.509Z,1.40
2018-03-16T12:24:46.742Z,2.03
2018-03-16T12:27:15.129Z,3.13
2018-03-16T12:29:43.591Z,2.30
2018-03-16T12:32:12.728Z,3.40
2018-03-16T12:34:41.018Z,3.23
2018-03-16T12:37:09.996Z,4.53
2018-03-16T12:39:39.153Z,2.93
2018-03-16T12:42:07.383Z,2.90
2018-03-16T12:44:35.659Z,1.50
2018-03-16T12:47:03.888Z,1.53
2018-03-16T12:49:32.125Z,1.97
2018-03-16T12:52:00.635Z,2.97
2018-03-16T12:54:28.982Z,1.63
2018-03-16T12:56:57.153Z,1.80
2018-03-16T12:59:25.651Z,1.63
2018-03-16T13:01:53.904Z,2.10
2018-03-16T13:04:22.154Z,3.87
2018-03-16T13:06:50.376Z,4.90
2018-03-16T13:09:18.608Z,4.73
2018-03-16T13:11:47.656Z,4.07
2018-03-16T13:14:15.971Z,4.67
2018-03-16T13:16:44.184Z,3.40
2018-03-16T13:19:12.477Z,1.90
2018-03-16T13:21:40.858Z,1.60
2018-03-16T13:24:09.100Z,1.70
2018-03-16T13:26:38.088Z,1.70
2018-03-16T13:29:07.294Z,2.00
2018-03-16T13:31:35.560Z,2.10
2018-03-16T13:34:04.546Z,2.00
2018-03-16T13:36:32.876Z,2.30
2018-03-16T13:39:01.098Z,2.00
2018-03-16T13:41:29.412Z,2.30
2018-03-16T13:43:57.701Z,2.60
2018-03-16T13:46:26.046Z,2.07
2018-03-16T13:48:55.057Z,2.77
2018-03-16T13:51:23.418Z,2.93
2018-03-16T13:53:52.560Z,4.53
2018-03-16T13:56:20.952Z,3.90
2018-03-16T13:58:49.178Z,5.67
2018-03-16T14:01:17.504Z,3.90
2018-03-16T14:03:45.732Z,4.63
2018-03-16T14:06:13.942Z,2.37
2018-03-16T14:08:42.906Z,2.43
2018-03-16T14:11:11.246Z,2.23
2018-03-16T14:13:40.519Z,1.90
2018-03-16T14:16:08.865Z,1.83
2018-03-16T14:18:37.048Z,1.90
2018-03-16T14:21:06.101Z,1.80
2018-03-16T14:23:34.300Z,1.80
2018-03-16T14:26:02.593Z,1.80
2018-03-16T14:28:30.873Z,1.93
2018-03-16T14:30:59.968Z,1.80
2018-03-16T14:33:28.153Z,1.60
2018-03-16T14:35:56.395Z,1.60
2018-03-16T14:38:24.613Z,1.70
2018-03-16T14:40:52.904Z,1.50
2018-03-16T14:43:21.144Z,1.73
2018-03-16T14:45:49.349Z,1.40
2018-03-16T14:48:17.577Z,1.53
2018-03-16T14:50:45.793Z,2.30
2018-03-16T14:53:13.997Z,2.20
2018-03-16T14:55:42.201Z,2.70
2018-03-16T14:58:10.524Z,2.50
2018-03-16T15:00:38.761Z,2.10
2018-03-16T15:03:06.965Z,2.07
2018-03-16T15:05:35.206Z,1.63
2018-03-16T15:08:03.403Z,2.23
2018-03-16T15:10:31.619Z,2.20
2018-03-16T15:12:59.847Z,2.10
2018-03-16T15:15:28.067Z,2.23
2018-03-16T15:17:56.266Z,1.87
2018-03-16T15:20:25.252Z,1.90
2018-03-16T15:22:54.360Z,1.63
2018-03-16T15:25:23.704Z,1.67
2018-03-16T15:27:51.997Z,1.90
2018-03-16T15:30:21.277Z,1.90
2018-03-16T15:32:49.545Z,1.60
2018-03-16T15:35:17.851Z,1.23
2018-03-16T15:37:46.138Z,1.37
2018-03-16T15:40:14.334Z,1.50
2018-03-16T15:42:43.365Z,1.30
2018-03-16T15:45:11.615Z,1.40
2018-03-16T15:47:40.659Z,1.47
2018-03-16T15:50:09.077Z,1.40
2018-03-16T15:52:37.358Z,7.23
2018-03-16T15:55:06.628Z,2.37
2018-03-16T15:57:34.839Z,2.90
2018-03-16T16:00:03.881Z,2.77
2018-03-16T16:02:32.173Z,1.97
2018-03-16T16:05:00.457Z,2.13
2018-03-16T16:07:28.738Z,2.30
2018-03-16T16:10:00.536Z,1.97
2018-03-16T16:12:28.778Z,1.97
2018-03-16T16:14:57.121Z,2.70
2018-03-16T16:17:25.346Z,2.20
2018-03-16T16:19:54.334Z,2.57
2018-03-16T16:22:23.371Z,3.10
2018-03-16T16:24:51.584Z,3.00
2018-03-16T16:27:19.817Z,3.10
2018-03-16T16:29:48.053Z,3.40
2018-03-16T16:32:17.139Z,2.83
2018-03-16T16:34:45.379Z,2.57
2018-03-16T16:37:13.722Z,2.93
2018-03-16T16:39:42.004Z,3.17
2018-03-16T16:42:10.248Z,3.30
2018-03-16T16:44:39.238Z,2.83
2018-03-16T16:47:07.446Z,2.87
2018-03-16T16:49:35.802Z,2.80
2018-03-16T16:52:04.820Z,2.80
2018-03-16T16:54:33.056Z,3.03
2018-03-16T16:57:02.167Z,3.33
2018-03-16T16:59:30.614Z,3.17
2018-03-16T17:01:58.932Z,2.87
2018-03-16T17:04:27.933Z,3.13
2018-03-16T17:06:57.008Z,3.70
2018-03-16T17:09:25.195Z,3.20
2018-03-16T17:11:54.202Z,5.90
2018-03-16T17:14:22.392Z,4.60
2018-03-16T17:16:50.628Z,9.20
2018-03-16T17:19:18.857Z,3.83
2018-03-16T17:21:47.080Z,3.50
2018-03-16T17:24:16.704Z,3.93
2018-03-16T17:26:45.697Z,3.20
2018-03-16T17:29:14.838Z,3.70
2018-03-16T17:31:43.084Z,3.80
2018-03-16T17:34:11.284Z,3.83
2018-03-16T17:36:39.536Z,4.07
2018-03-16T17:39:07.772Z,3.73
2018-03-16T17:41:35.986Z,3.73
2018-03-16T17:44:04.198Z,4.00
2018-03-16T17:46:32.410Z,3.40
2018-03-16T17:49:01.418Z,4.13
2018-03-16T17:51:29.759Z,3.40
2018-03-16T17:53:58.920Z,3.57
2018-03-16T17:56:27.173Z,3.77
2018-03-16T17:58:55.450Z,3.33
2018-03-16T18:01:23.718Z,3.70
2018-03-16T18:03:52.697Z,6.17
2018-03-16T18:06:21.062Z,4.20
2018-03-16T18:08:50.156Z,3.93
2018-03-16T18:11:18.383Z,3.17
2018-03-16T18:13:46.592Z,3.13
2018-03-16T18:16:15.057Z,3.60
2018-03-16T18:18:43.477Z,3.70
2018-03-16T18:21:12.646Z,3.90
2018-03-16T18:23:40.948Z,3.77
2018-03-16T18:26:09.270Z,5.00
2018-03-16T18:28:37.514Z,3.67
2018-03-16T18:31:06.613Z,3.27
2018-03-16T18:33:35.807Z,3.60
2018-03-16T18:36:04.855Z,3.33
2018-03-16T18:38:33.343Z,3.43
2018-03-16T18:41:01.564Z,3.87
2018-03-16T18:43:30.640Z,4.27
2018-03-16T18:45:58.966Z,5.00
2018-03-16T18:48:27.314Z,5.00
2018-03-16T18:50:56.317Z,5.80
2018-03-16T18:53:25.317Z,7.00
2018-03-16T18:55:53.544Z,7.23
2018-03-16T18:58:21.761Z,7.00
2018-03-16T19:00:49.996Z,6.80
2018-03-16T19:03:18.270Z,6.70
2018-03-16T19:05:46.555Z,6.77
2018-03-16T19:08:14.771Z,7.47
2018-03-16T19:10:42.996Z,7.30
2018-03-16T19:13:11.311Z,7.93
2018-03-16T19:15:40.347Z,7.63
2018-03-16T19:18:08.863Z,7.60
2018-03-16T19:20:37.085Z,8.23
2018-03-16T19:23:05.289Z,8.77
2018-03-16T19:25:33.518Z,8.93
2018-03-16T19:28:01.728Z,8.43
2018-03-16T19:30:30.013Z,8.07
2018-03-16T19:32:58.247Z,7.47
2018-03-16T19:35:26.472Z,7.33
2018-03-16T19:37:54.682Z,7.33
2018-03-16T19:40:23.648Z,7.33
2018-03-16T19:42:51.912Z,7.70
2018-03-16T19:45:20.148Z,7.80
2018-03-16T19:47:48.462Z,7.40
2018-03-16T19:50:16.675Z,7.53
2018-03-16T19:52:45.645Z,7.67
2018-03-16T19:55:13.914Z,6.83
2018-03-16T19:57:42.173Z,7.23
2018-03-16T20:00:10.416Z,6.70
2018-03-16T20:02:38.618Z,6.30
2018-03-16T20:05:06.870Z,6.73
2018-03-16T20:07:35.086Z,7.17
2018-03-16T20:10:03.306Z,7.17
2018-03-16T20:12:32.362Z,7.03
2018-03-16T20:15:00.565Z,6.90
2018-03-16T20:17:29.614Z,8.57
2018-03-16T20:19:57.816Z,8.73
2018-03-16T20:22:26.048Z,8.43
2018-03-16T20:24:55.013Z,9.03
2018-03-16T20:27:23.981Z,9.03
2018-03-16T20:29:52.282Z,9.60
2018-03-16T20:32:21.277Z,9.37
2018-03-16T20:34:49.635Z,9.20
2018-03-16T20:37:17.879Z,9.40
2018-03-16T20:39:46.153Z,9.27
2018-03-16T20:42:14.415Z,10.07
2018-03-16T20:44:42.649Z,11.80
2018-03-16T20:47:11.661Z,16.03
2018-03-16T20:49:39.931Z,13.43
2018-03-16T20:52:08.924Z,27.17
2018-03-16T20:54:37.888Z,25.20
2018-03-16T20:57:06.137Z,15.97
2018-03-16T20:59:34.352Z,13.33
2018-03-16T21:02:03.389Z,12.90
2018-03-16T21:04:31.598Z,12.17
2018-03-16T21:06:59.923Z,10.60
2018-03-16T21:09:28.137Z,11.50
2018-03-16T21:11:56.388Z,11.27
2018-03-16T21:14:24.613Z,10.07
2018-03-16T21:16:52.821Z,10.33
2018-03-16T21:19:21.142Z,9.77
2018-03-16T21:21:49.426Z,9.60
2018-03-16T21:24:17.661Z,15.63
2018-03-16T21:26:45.947Z,14.43
2018-03-16T21:29:14.162Z,13.50
2018-03-16T21:31:42.399Z,11.83
2018-03-16T21:34:10.623Z,11.37
2018-03-16T21:36:38.871Z,11.43
2018-03-16T21:39:07.112Z,12.93
2018-03-16T21:41:35.332Z,12.23
2018-03-16T21:44:03.532Z,13.60
2018-03-16T21:46:31.776Z,13.97
2018-03-16T21:48:59.976Z,14.33
2018-03-16T21:51:28.212Z,12.70
2018-03-16T21:53:56.396Z,12.07
2018-03-16T21:56:24.644Z,12.03
2018-03-16T21:58:52.852Z,14.30
2018-03-16T22:01:21.066Z,15.03
2018-03-16T22:03:49.511Z,13.33
2018-03-16T22:06:18.540Z,11.70
2018-03-16T22:08:47.529Z,10.00
2018-03-16T22:11:15.773Z,10.33
2018-03-16T22:13:44.010Z,12.77
2018-03-16T22:16:12.253Z,12.83
2018-03-16T22:18:41.236Z,13.30
2018-03-16T22:21:09.438Z,14.23
2018-03-16T22:23:38.421Z,11.73
2018-03-16T22:26:07.612Z,11.77
2018-03-16T22:28:35.886Z,10.93
2018-03-16T22:31:04.158Z,11.07
2018-03-16T22:33:32.357Z,8.43
2018-03-16T22:36:01.407Z,9.60
2018-03-16T22:38:29.653Z,7.97
2018-03-16T22:40:57.886Z,8.17
2018-03-16T22:43:26.923Z,8.00
2018-03-16T22:45:55.485Z,9.20
2018-03-16T22:48:24.449Z,8.00
2018-03-16T22:50:52.658Z,7.00
2018-03-16T22:53:20.888Z,7.63
2018-03-16T22:55:49.140Z,7.10
2018-03-16T22:58:18.084Z,7.50
2018-03-16T23:00:47.131Z,7.27
2018-03-16T23:03:15.377Z,7.20
2018-03-16T23:05:43.591Z,6.30
2018-03-16T23:08:11.799Z,5.77
2018-03-16T23:10:40.889Z,6.17
2018-03-16T23:13:09.181Z,5.63
2018-03-16T23:15:38.143Z,5.47
2018-03-16T23:18:06.775Z,5.60
2018-03-16T23:20:34.954Z,5.77
2018-03-16T23:23:03.222Z,5.80
2018-03-16T23:25:31.510Z,6.33
2018-03-16T23:27:59.703Z,6.00
2018-03-16T23:30:27.978Z,7.23
2018-03-16T23:32:56.200Z,7.33
2018-03-16T23:35:25.188Z,7.50
2018-03-16T23:37:53.485Z,8.47
2018-03-16T23:40:21.775Z,8.60
2018-03-16T23:42:49.977Z,8.57
2018-03-16T23:45:19.035Z,9.90
2018-03-16T23:47:48.021Z,8.90
2018-03-16T23:50:17.009Z,11.03
2018-03-16T23:52:46.021Z,10.00
2018-03-16T23:55:14.380Z,9.23
2018-03-16T23:57:43.368Z,9.20
